Notice: Undefined variable: arrConditions in /hermes/bosnaweb18a/b1310/ipg.tarrytownnyweatherco/weather2/wsDataGet.php on line 148

Active alerts


No alerts

Webcam Webcam


Visit our other weather sites:

Template documentation
and downloads

And another site


Nearby METAR Reports

  
EBBR - Brussels International Airport, Belgium
Distance from station: W 9mi, 14km
Updated: Jan 18 2018 2:20 am
Mostly Cloudy
Mostly Cloudy  
 Wind from WSW
Wind: WSW 31 mph , 50 km/h, Gust: 48 mph , 78 km/h
Temperature:  52°F , 11°C
Dew Point:  43°F , 6°C
Humidity :  72%
Barometer:  29.29 inHg , 992 hPa
Clouds:  Mostly Cloudy
Visibility:   6 miles , 10 km
Cloud details:  Mostly Cloudy 2700 ft
2018/01/18 07:20 EBBR 180720Z 25027G42KT 9999 BKN027 11/06 Q0992 NOSIG
EBBE - Beauvechain (Bevekom), Belgium
Distance from station: SSE 10mi, 17km
Updated: Jan 18 2018 1:55 am
Mostly Cloudy
Mostly Cloudy  
 Wind from WSW
Wind: WSW 29 mph , 46 km/h, Gust: 47 mph , 76 km/h
Temperature:  48°F , 9°C
Wind Chill:  39°F , 4°C
Dew Point:  43°F , 6°C
Humidity :  82%
Barometer:  29.32 inHg , 993 hPa
Clouds:  Mostly Cloudy
Visibility:   6 miles , 10 km
Cloud details:  Partly Cloudy 1400 ft
Partly Cloudy 1800 ft
Mostly Cloudy 2200 ft
2018/01/18 06:55 EBBE 180655Z 24025G41KT 9999 SCT014 SCT018 BKN022 09/06 Q0993 GRN GRN BECMG WHT
EBDT - Schaffen, Belgium
Distance from station: ENE 18mi, 29km
Updated: Jan 18 2018 2:04 am
Mostly Cloudy
Mostly Cloudy  
 Wind from SW
Wind: SW 18 mph , 30 km/h, Gust: 35 mph , 56 km/h
Temperature:  50°F , 10°C
Wind Chill:  44°F , 7°C
Dew Point:  45°F , 7°C
Humidity :  82%
Barometer:  29.26 inHg , 991 hPa
Clouds:  Mostly Cloudy
Visibility:   6 miles , 10 km
Cloud details:  Few Clouds 2000 ft
Partly Cloudy 2700 ft
Mostly Cloudy 4000 ft
2018/01/18 07:04 EBDT 180704Z 23016G30KT 9999 FEW020 SCT027 BKN040 10/07 Q0991 BLACKBLU BLU TEMPO WHT
EBAW - Antwerp/Deurne, Belgium
Distance from station: NNW 23mi, 38km
Updated: Jan 18 2018 2:20 am
Mostly Cloudy
Mostly Cloudy  
 Wind from WSW
Wind: WSW 28 mph , 44 km/h, Gust: 44 mph , 70 km/h
Temperature:  54°F , 12°C
Dew Point:  43°F , 6°C
Humidity :  67%
Barometer:  29.26 inHg , 991 hPa
Clouds:  Mostly Cloudy
Visibility:   6 miles , 10 km
Cloud details:  Few Clouds 3000 ft
Mostly Cloudy 3500 ft
2018/01/18 07:20 EBAW 180720Z 25024G38KT 220V290 9999 FEW030 BKN035 12/06 Q0991 TEMPO 25027G48KT
EBCI - Charleroi/Gosselies, Belgium
Distance from station: SSW 32mi, 51km
Updated: Jan 18 2018 2:20 am
Mostly Cloudy
Mostly Cloudy  
 Wind from WSW
Wind: WSW 32 mph , 52 km/h, Gust: 45 mph , 72 km/h
Temperature:  48°F , 9°C
Wind Chill:  39°F , 4°C
Dew Point:  45°F , 7°C
Humidity :  87%
Barometer:  29.38 inHg , 995 hPa
Clouds:  Mostly Cloudy
Visibility:   6 miles , 10 km
Cloud details:  Few Clouds 1000 ft
Mostly Cloudy 1500 ft
2018/01/18 07:20 EBCI 180720Z 24028G39KT 9999 FEW010 BKN015 09/07 Q0995 TEMPO 21025G40KT
EBLG - Bierset/Liege, Belgium
Distance from station: ESE 38mi, 60km
Updated: Jan 18 2018 2:20 am
Mostly Cloudy
Mostly Cloudy  
 Wind from SW
Wind: SW 32 mph , 52 km/h, Gust: 44 mph , 70 km/h
Temperature:  46°F , 8°C
Wind Chill:  36°F , 2°C
Dew Point:  43°F , 6°C
Humidity :  87%
Barometer:  29.35 inHg , 994 hPa
Clouds:  Mostly Cloudy
Visibility:   6 miles , 10 km
Cloud details:  Partly Cloudy 1100 ft
Mostly Cloudy 2100 ft
2018/01/18 07:20 EBLG 180720Z 23028G38KT 9999 SCT011 BKN021 08/06 Q0994 TEMPO BKN010

Script developed by  Saratoga-weather.org Adapted for the template by  Weerstation Leuven

You find our weather info also at:


Weather Underground

Citizen Weather Observer Program (CWOP)

Equipment we use:


Weather-station
Davis VP2

Weather-program
Weather Display

Weather-server
My Computer

Provider
My provider

Davis VP2

Weather Display

My Computer

My provider